Pagrindinis puslapis
METAR-TAF:

METAR-TAF

Oro uostai :

Akıncı, Turkija

platuma: 40-05N, ilguma: 032-34E, Aukštis: 843 m

METAR: trūkstamas

Laikas: 15:39 (12:39 UTC)

Prognozė

Ataskaita buvo paskelbta 1 valandą ir 59 minutes, ne 10:40 UTC
Prognozė galioja nuo 15 metu 12 UTC su 15 metu 21 UTC
Vėjas 2 kt nuo kintamojo kryptimis
Matomumas 10 km arba daugiau
Išsisklaidę debesys ne aukštis 4000 ft
Su prošvaistėmis ne aukštis 10000 ft
Tapsmas
nuo 15 metu 18 UTC su 15 metu 20 UTC
Matomumas 10 km arba daugiau
nėra debesų žemiau 1500 m ir nėra kamuolinių lietaus debesų

TAF: LTAE 151040Z 1512/1521 VRB02KT 9999 SCT040 BKN100 BECMG 1518/1520 CAVOK

Orai ataskaitas ir orų prognozės (METAR, TAF).

turimą stotys yra geltonos ir raudonos taškus žemėlapyje.

Perkelti pele per norėdami pamatyti stoties vardą.

Tada spustelėkite, norėdami matyti oro stebėjimo ir prognozės.

Norėdami pakeisti žemėlapį: spustelėkite ant žalios mygtukų su juodo kryžiaus žemyn,; žalią mygtuką su brūkšneliu, jei norite nutolinti; arba žalių rodyklių gretimoms žemėlapius.


METAR-TAF: